sensor_id;sensor_type;location;lat;lon;timestamp;P1;durP1;ratioP1;P2;durP2;ratioP2
2602;SDS011;1311;47.966;7.958;2024-01-11T00:00:55;33.80;;;16.60;;
2602;SDS011;1311;47.966;7.958;2024-01-11T00:03:24;40.33;;;19.47;;
2602;SDS011;1311;47.966;7.958;2024-01-11T00:05:50;59.33;;;24.00;;
2602;SDS011;1311;47.966;7.958;2024-01-11T00:08:17;43.30;;;17.00;;
2602;SDS011;1311;47.966;7.958;2024-01-11T00:10:44;30.10;;;15.37;;
2602;SDS011;1311;47.966;7.958;2024-01-11T00:13:11;31.87;;;15.27;;
2602;SDS011;1311;47.966;7.958;2024-01-11T00:15:39;29.80;;;15.90;;
2602;SDS011;1311;47.966;7.958;2024-01-11T00:18:05;26.27;;;13.07;;
2602;SDS011;1311;47.966;7.958;2024-01-11T00:20:32;28.27;;;13.33;;
2602;SDS011;1311;47.966;7.958;2024-01-11T00:22:59;30.77;;;14.93;;
2602;SDS011;1311;47.966;7.958;2024-01-11T00:25:26;43.10;;;18.77;;
2602;SDS011;1311;47.966;7.958;2024-01-11T00:27:53;37.57;;;17.60;;
2602;SDS011;1311;47.966;7.958;2024-01-11T00:30:19;42.13;;;18.23;;
2602;SDS011;1311;47.966;7.958;2024-01-11T00:32:49;30.87;;;16.03;;
2602;SDS011;1311;47.966;7.958;2024-01-11T00:35:16;29.00;;;14.13;;
2602;SDS011;1311;47.966;7.958;2024-01-11T00:37:43;44.67;;;17.73;;
2602;SDS011;1311;47.966;7.958;2024-01-11T00:40:10;34.33;;;16.97;;
2602;SDS011;1311;47.966;7.958;2024-01-11T00:42:37;37.83;;;16.17;;
2602;SDS011;1311;47.966;7.958;2024-01-11T00:45:04;33.30;;;17.93;;
2602;SDS011;1311;47.966;7.958;2024-01-11T00:47:31;50.70;;;22.27;;
2602;SDS011;1311;47.966;7.958;2024-01-11T00:49:59;44.53;;;18.70;;
2602;SDS011;1311;47.966;7.958;2024-01-11T00:52:26;37.03;;;15.97;;
2602;SDS011;1311;47.966;7.958;2024-01-11T00:54:52;27.20;;;14.40;;
2602;SDS011;1311;47.966;7.958;2024-01-11T00:57:19;27.40;;;13.80;;
2602;SDS011;1311;47.966;7.958;2024-01-11T00:59:46;30.47;;;15.07;;
2602;SDS011;1311;47.966;7.958;2024-01-11T01:02:12;32.50;;;15.63;;
2602;SDS011;1311;47.966;7.958;2024-01-11T01:04:39;27.73;;;15.07;;
2602;SDS011;1311;47.966;7.958;2024-01-11T01:07:07;32.07;;;13.67;;
2602;SDS011;1311;47.966;7.958;2024-01-11T01:09:34;38.90;;;15.77;;
2602;SDS011;1311;47.966;7.958;2024-01-11T01:12:01;33.77;;;16.80;;
2602;SDS011;1311;47.966;7.958;2024-01-11T01:14:28;36.00;;;17.33;;
2602;SDS011;1311;47.966;7.958;2024-01-11T01:16:55;38.53;;;17.43;;
2602;SDS011;1311;47.966;7.958;2024-01-11T01:19:22;41.27;;;18.50;;
2602;SDS011;1311;47.966;7.958;2024-01-11T01:21:49;28.43;;;13.97;;
2602;SDS011;1311;47.966;7.958;2024-01-11T01:24:17;34.40;;;13.70;;
2602;SDS011;1311;47.966;7.958;2024-01-11T01:26:44;30.43;;;14.73;;
2602;SDS011;1311;47.966;7.958;2024-01-11T01:29:10;21.50;;;13.53;;
2602;SDS011;1311;47.966;7.958;2024-01-11T01:31:37;21.70;;;11.47;;
2602;SDS011;1311;47.966;7.958;2024-01-11T01:34:04;24.13;;;13.60;;
2602;SDS011;1311;47.966;7.958;2024-01-11T01:36:33;27.13;;;14.53;;
2602;SDS011;1311;47.966;7.958;2024-01-11T01:38:59;29.30;;;13.47;;
2602;SDS011;1311;47.966;7.958;2024-01-11T01:41:27;23.30;;;13.60;;
2602;SDS011;1311;47.966;7.958;2024-01-11T01:43:54;30.20;;;14.10;;
2602;SDS011;1311;47.966;7.958;2024-01-11T01:46:21;23.57;;;12.87;;
2602;SDS011;1311;47.966;7.958;2024-01-11T01:48:49;28.17;;;13.77;;
2602;SDS011;1311;47.966;7.958;2024-01-11T01:51:17;28.43;;;13.20;;
2602;SDS011;1311;47.966;7.958;2024-01-11T01:53:44;22.83;;;12.07;;
2602;SDS011;1311;47.966;7.958;2024-01-11T01:56:11;25.73;;;14.43;;
2602;SDS011;1311;47.966;7.958;2024-01-11T01:58:40;24.83;;;13.50;;
2602;SDS011;1311;47.966;7.958;2024-01-11T02:01:08;31.60;;;14.27;;
2602;SDS011;1311;47.966;7.958;2024-01-11T02:03:35;26.67;;;15.20;;
2602;SDS011;1311;47.966;7.958;2024-01-11T02:06:02;26.77;;;12.90;;
2602;SDS011;1311;47.966;7.958;2024-01-11T02:08:31;30.60;;;15.47;;
2602;SDS011;1311;47.966;7.958;2024-01-11T02:10:59;25.90;;;13.67;;
2602;SDS011;1311;47.966;7.958;2024-01-11T02:13:26;25.87;;;13.40;;
2602;SDS011;1311;47.966;7.958;2024-01-11T02:15:54;31.70;;;15.80;;
2602;SDS011;1311;47.966;7.958;2024-01-11T02:18:21;25.90;;;13.10;;
2602;SDS011;1311;47.966;7.958;2024-01-11T02:20:48;24.73;;;13.20;;
2602;SDS011;1311;47.966;7.958;2024-01-11T02:23:17;24.57;;;13.40;;
2602;SDS011;1311;47.966;7.958;2024-01-11T02:25:46;23.93;;;13.00;;
2602;SDS011;1311;47.966;7.958;2024-01-11T02:28:13;26.30;;;14.47;;
2602;SDS011;1311;47.966;7.958;2024-01-11T02:30:40;29.27;;;13.43;;
2602;SDS011;1311;47.966;7.958;2024-01-11T02:33:07;25.10;;;12.00;;
2602;SDS011;1311;47.966;7.958;2024-01-11T02:35:34;29.53;;;13.67;;
2602;SDS011;1311;47.966;7.958;2024-01-11T02:38:03;28.00;;;12.17;;
2602;SDS011;1311;47.966;7.958;2024-01-11T02:40:31;24.33;;;12.27;;
2602;SDS011;1311;47.966;7.958;2024-01-11T02:43:08;23.60;;;11.60;;
2602;SDS011;1311;47.966;7.958;2024-01-11T02:45:35;19.60;;;12.37;;
2602;SDS011;1311;47.966;7.958;2024-01-11T02:48:02;22.70;;;12.27;;
2602;SDS011;1311;47.966;7.958;2024-01-11T02:50:29;30.73;;;14.57;;
2602;SDS011;1311;47.966;7.958;2024-01-11T02:52:56;27.23;;;13.40;;
2602;SDS011;1311;47.966;7.958;2024-01-11T02:55:23;32.70;;;15.10;;
2602;SDS011;1311;47.966;7.958;2024-01-11T02:57:49;24.60;;;12.27;;
2602;SDS011;1311;47.966;7.958;2024-01-11T03:00:17;23.87;;;11.77;;
2602;SDS011;1311;47.966;7.958;2024-01-11T03:02:44;24.33;;;12.50;;
2602;SDS011;1311;47.966;7.958;2024-01-11T03:05:11;22.73;;;11.87;;
2602;SDS011;1311;47.966;7.958;2024-01-11T03:07:38;25.13;;;13.73;;
2602;SDS011;1311;47.966;7.958;2024-01-11T03:10:05;28.43;;;13.27;;
2602;SDS011;1311;47.966;7.958;2024-01-11T03:12:32;21.90;;;12.27;;
2602;SDS011;1311;47.966;7.958;2024-01-11T03:14:59;24.97;;;12.67;;
2602;SDS011;1311;47.966;7.958;2024-01-11T03:17:27;28.20;;;13.50;;
2602;SDS011;1311;47.966;7.958;2024-01-11T03:19:54;24.47;;;11.80;;
2602;SDS011;1311;47.966;7.958;2024-01-11T03:22:20;19.57;;;11.27;;
2602;SDS011;1311;47.966;7.958;2024-01-11T03:24:47;23.23;;;12.17;;
2602;SDS011;1311;47.966;7.958;2024-01-11T03:27:15;23.90;;;12.93;;
2602;SDS011;1311;47.966;7.958;2024-01-11T03:29:41;25.47;;;12.07;;
2602;SDS011;1311;47.966;7.958;2024-01-11T03:32:08;26.67;;;11.77;;
2602;SDS011;1311;47.966;7.958;2024-01-11T03:34:39;24.67;;;12.50;;
2602;SDS011;1311;47.966;7.958;2024-01-11T03:37:06;25.87;;;12.73;;
2602;SDS011;1311;47.966;7.958;2024-01-11T03:39:33;24.57;;;12.83;;
2602;SDS011;1311;47.966;7.958;2024-01-11T03:42:00;27.83;;;13.53;;
2602;SDS011;1311;47.966;7.958;2024-01-11T03:44:28;25.17;;;13.97;;
2602;SDS011;1311;47.966;7.958;2024-01-11T03:46:56;22.97;;;12.07;;
2602;SDS011;1311;47.966;7.958;2024-01-11T03:49:23;23.90;;;11.83;;
2602;SDS011;1311;47.966;7.958;2024-01-11T03:51:51;24.97;;;12.60;;
2602;SDS011;1311;47.966;7.958;2024-01-11T03:54:17;24.57;;;12.97;;
2602;SDS011;1311;47.966;7.958;2024-01-11T03:56:44;27.43;;;13.67;;
2602;SDS011;1311;47.966;7.958;2024-01-11T03:59:11;25.70;;;12.33;;
2602;SDS011;1311;47.966;7.958;2024-01-11T04:01:39;21.70;;;12.20;;
2602;SDS011;1311;47.966;7.958;2024-01-11T04:04:06;24.97;;;11.77;;
2602;SDS011;1311;47.966;7.958;2024-01-11T04:06:33;20.83;;;12.37;;
2602;SDS011;1311;47.966;7.958;2024-01-11T04:09:01;27.20;;;13.20;;
2602;SDS011;1311;47.966;7.958;2024-01-11T04:11:28;23.03;;;12.10;;
2602;SDS011;1311;47.966;7.958;2024-01-11T04:13:54;24.67;;;12.87;;
2602;SDS011;1311;47.966;7.958;2024-01-11T04:16:21;24.90;;;12.70;;
2602;SDS011;1311;47.966;7.958;2024-01-11T04:18:48;29.63;;;12.90;;
2602;SDS011;1311;47.966;7.958;2024-01-11T04:21:21;27.20;;;13.13;;
2602;SDS011;1311;47.966;7.958;2024-01-11T04:23:48;22.00;;;12.07;;
2602;SDS011;1311;47.966;7.958;2024-01-11T04:26:17;26.27;;;10.60;;
2602;SDS011;1311;47.966;7.958;2024-01-11T04:28:44;21.27;;;11.60;;
2602;SDS011;1311;47.966;7.958;2024-01-11T04:31:11;22.97;;;12.93;;
2602;SDS011;1311;47.966;7.958;2024-01-11T04:33:39;23.57;;;12.67;;
2602;SDS011;1311;47.966;7.958;2024-01-11T04:36:06;26.63;;;14.07;;
2602;SDS011;1311;47.966;7.958;2024-01-11T04:38:33;28.63;;;12.97;;
2602;SDS011;1311;47.966;7.958;2024-01-11T04:41:00;29.00;;;13.40;;
2602;SDS011;1311;47.966;7.958;2024-01-11T04:43:28;23.03;;;11.70;;
2602;SDS011;1311;47.966;7.958;2024-01-11T04:45:55;26.47;;;13.43;;
2602;SDS011;1311;47.966;7.958;2024-01-11T04:48:21;21.33;;;11.70;;
2602;SDS011;1311;47.966;7.958;2024-01-11T04:50:48;25.90;;;12.57;;
2602;SDS011;1311;47.966;7.958;2024-01-11T04:53:15;26.33;;;12.57;;
2602;SDS011;1311;47.966;7.958;2024-01-11T04:55:41;23.47;;;12.67;;
2602;SDS011;1311;47.966;7.958;2024-01-11T04:58:08;24.43;;;13.40;;
2602;SDS011;1311;47.966;7.958;2024-01-11T05:00:36;26.87;;;13.27;;
2602;SDS011;1311;47.966;7.958;2024-01-11T05:03:03;25.50;;;13.77;;
2602;SDS011;1311;47.966;7.958;2024-01-11T05:05:30;26.87;;;13.37;;
2602;SDS011;1311;47.966;7.958;2024-01-11T05:07:57;27.17;;;13.40;;
2602;SDS011;1311;47.966;7.958;2024-01-11T05:10:23;26.83;;;13.63;;
2602;SDS011;1311;47.966;7.958;2024-01-11T05:12:50;26.10;;;13.37;;
2602;SDS011;1311;47.966;7.958;2024-01-11T05:15:17;25.60;;;13.33;;
2602;SDS011;1311;47.966;7.958;2024-01-11T05:17:45;30.13;;;15.27;;
2602;SDS011;1311;47.966;7.958;2024-01-11T05:20:11;34.73;;;15.53;;
2602;SDS011;1311;47.966;7.958;2024-01-11T05:22:38;23.70;;;11.70;;
2602;SDS011;1311;47.966;7.958;2024-01-11T05:25:05;27.17;;;14.17;;
2602;SDS011;1311;47.966;7.958;2024-01-11T05:27:32;24.67;;;13.00;;
2602;SDS011;1311;47.966;7.958;2024-01-11T05:29:59;23.80;;;13.37;;
2602;SDS011;1311;47.966;7.958;2024-01-11T05:32:25;23.07;;;12.90;;
2602;SDS011;1311;47.966;7.958;2024-01-11T05:34:53;25.90;;;13.73;;
2602;SDS011;1311;47.966;7.958;2024-01-11T05:37:20;28.33;;;14.00;;
2602;SDS011;1311;47.966;7.958;2024-01-11T05:39:47;29.50;;;16.23;;
2602;SDS011;1311;47.966;7.958;2024-01-11T05:42:13;29.67;;;14.93;;
2602;SDS011;1311;47.966;7.958;2024-01-11T05:44:40;28.37;;;15.20;;
2602;SDS011;1311;47.966;7.958;2024-01-11T05:47:07;29.93;;;15.17;;
2602;SDS011;1311;47.966;7.958;2024-01-11T05:49:34;29.37;;;16.07;;
2602;SDS011;1311;47.966;7.958;2024-01-11T05:52:02;29.50;;;17.67;;
2602;SDS011;1311;47.966;7.958;2024-01-11T05:54:29;34.50;;;17.53;;
2602;SDS011;1311;47.966;7.958;2024-01-11T05:56:56;34.93;;;18.27;;
2602;SDS011;1311;47.966;7.958;2024-01-11T05:59:24;36.63;;;17.27;;
2602;SDS011;1311;47.966;7.958;2024-01-11T06:01:51;35.50;;;17.50;;
2602;SDS011;1311;47.966;7.958;2024-01-11T06:04:18;40.00;;;20.00;;
2602;SDS011;1311;47.966;7.958;2024-01-11T06:06:44;33.60;;;15.70;;
2602;SDS011;1311;47.966;7.958;2024-01-11T06:09:12;38.13;;;17.50;;
2602;SDS011;1311;47.966;7.958;2024-01-11T06:11:39;33.13;;;17.30;;
2602;SDS011;1311;47.966;7.958;2024-01-11T06:14:06;36.30;;;17.97;;
2602;SDS011;1311;47.966;7.958;2024-01-11T06:16:33;30.80;;;16.77;;
2602;SDS011;1311;47.966;7.958;2024-01-11T06:19:00;33.03;;;16.53;;
2602;SDS011;1311;47.966;7.958;2024-01-11T06:21:26;31.43;;;16.77;;
2602;SDS011;1311;47.966;7.958;2024-01-11T06:23:53;28.10;;;15.60;;
2602;SDS011;1311;47.966;7.958;2024-01-11T06:26:21;26.40;;;15.47;;
2602;SDS011;1311;47.966;7.958;2024-01-11T06:28:48;30.87;;;15.93;;
2602;SDS011;1311;47.966;7.958;2024-01-11T06:31:15;28.50;;;15.90;;
2602;SDS011;1311;47.966;7.958;2024-01-11T06:33:43;29.87;;;14.40;;
2602;SDS011;1311;47.966;7.958;2024-01-11T06:36:10;27.73;;;15.10;;
2602;SDS011;1311;47.966;7.958;2024-01-11T06:38:37;32.07;;;16.90;;
2602;SDS011;1311;47.966;7.958;2024-01-11T06:41:03;30.60;;;16.13;;
2602;SDS011;1311;47.966;7.958;2024-01-11T06:43:32;34.77;;;18.10;;
2602;SDS011;1311;47.966;7.958;2024-01-11T06:46:01;32.30;;;17.80;;
2602;SDS011;1311;47.966;7.958;2024-01-11T06:48:29;31.17;;;14.80;;
2602;SDS011;1311;47.966;7.958;2024-01-11T06:50:55;36.30;;;18.10;;
2602;SDS011;1311;47.966;7.958;2024-01-11T06:53:22;31.70;;;16.60;;
2602;SDS011;1311;47.966;7.958;2024-01-11T06:55:49;31.23;;;16.70;;
2602;SDS011;1311;47.966;7.958;2024-01-11T06:58:20;30.17;;;15.40;;
2602;SDS011;1311;47.966;7.958;2024-01-11T07:00:48;34.53;;;15.93;;
2602;SDS011;1311;47.966;7.958;2024-01-11T07:03:21;30.87;;;17.07;;
2602;SDS011;1311;47.966;7.958;2024-01-11T07:05:51;30.17;;;15.07;;
2602;SDS011;1311;47.966;7.958;2024-01-11T07:08:17;26.83;;;15.23;;
2602;SDS011;1311;47.966;7.958;2024-01-11T07:10:44;28.10;;;15.50;;
2602;SDS011;1311;47.966;7.958;2024-01-11T07:13:11;31.97;;;16.40;;
2602;SDS011;1311;47.966;7.958;2024-01-11T07:15:41;32.97;;;16.27;;
2602;SDS011;1311;47.966;7.958;2024-01-11T07:18:10;31.30;;;15.50;;
2602;SDS011;1311;47.966;7.958;2024-01-11T07:20:36;26.40;;;15.70;;
2602;SDS011;1311;47.966;7.958;2024-01-11T07:23:03;31.77;;;15.80;;
2602;SDS011;1311;47.966;7.958;2024-01-11T07:25:30;28.37;;;15.60;;
2602;SDS011;1311;47.966;7.958;2024-01-11T07:27:57;28.53;;;16.53;;
2602;SDS011;1311;47.966;7.958;2024-01-11T07:30:24;32.43;;;15.30;;
2602;SDS011;1311;47.966;7.958;2024-01-11T07:32:50;29.10;;;16.27;;
2602;SDS011;1311;47.966;7.958;2024-01-11T07:35:18;28.70;;;14.83;;
2602;SDS011;1311;47.966;7.958;2024-01-11T07:37:46;30.47;;;16.33;;
2602;SDS011;1311;47.966;7.958;2024-01-11T07:40:15;31.50;;;16.43;;
2602;SDS011;1311;47.966;7.958;2024-01-11T07:42:44;27.87;;;13.67;;
2602;SDS011;1311;47.966;7.958;2024-01-11T07:45:12;31.90;;;16.40;;
2602;SDS011;1311;47.966;7.958;2024-01-11T07:47:38;27.60;;;14.33;;
2602;SDS011;1311;47.966;7.958;2024-01-11T07:50:05;28.27;;;15.03;;
2602;SDS011;1311;47.966;7.958;2024-01-11T07:52:36;32.10;;;14.37;;
2602;SDS011;1311;47.966;7.958;2024-01-11T07:55:03;31.17;;;15.60;;
2602;SDS011;1311;47.966;7.958;2024-01-11T07:57:32;31.27;;;14.93;;
2602;SDS011;1311;47.966;7.958;2024-01-11T07:59:59;29.20;;;16.03;;
2602;SDS011;1311;47.966;7.958;2024-01-11T08:02:26;30.30;;;17.00;;
2602;SDS011;1311;47.966;7.958;2024-01-11T08:04:53;28.57;;;16.20;;
2602;SDS011;1311;47.966;7.958;2024-01-11T08:07:20;32.87;;;15.70;;
2602;SDS011;1311;47.966;7.958;2024-01-11T08:09:48;31.50;;;15.90;;
2602;SDS011;1311;47.966;7.958;2024-01-11T08:12:15;30.03;;;16.37;;
2602;SDS011;1311;47.966;7.958;2024-01-11T08:14:43;30.50;;;16.47;;
2602;SDS011;1311;47.966;7.958;2024-01-11T08:17:11;30.40;;;14.60;;
2602;SDS011;1311;47.966;7.958;2024-01-11T08:19:38;35.87;;;15.17;;
2602;SDS011;1311;47.966;7.958;2024-01-11T08:22:05;28.63;;;15.73;;
2602;SDS011;1311;47.966;7.958;2024-01-11T08:24:34;26.03;;;13.80;;
2602;SDS011;1311;47.966;7.958;2024-01-11T08:27:03;35.43;;;17.60;;
2602;SDS011;1311;47.966;7.958;2024-01-11T08:29:31;33.60;;;15.87;;
2602;SDS011;1311;47.966;7.958;2024-01-11T08:31:58;28.77;;;16.30;;
2602;SDS011;1311;47.966;7.958;2024-01-11T08:34:26;32.70;;;17.63;;
2602;SDS011;1311;47.966;7.958;2024-01-11T08:36:53;47.57;;;21.07;;
2602;SDS011;1311;47.966;7.958;2024-01-11T08:39:19;36.27;;;18.40;;
2602;SDS011;1311;47.966;7.958;2024-01-11T08:41:48;35.53;;;17.77;;
2602;SDS011;1311;47.966;7.958;2024-01-11T08:44:16;31.73;;;14.20;;
2602;SDS011;1311;47.966;7.958;2024-01-11T08:46:43;25.97;;;15.10;;
2602;SDS011;1311;47.966;7.958;2024-01-11T08:49:10;26.13;;;15.80;;
2602;SDS011;1311;47.966;7.958;2024-01-11T08:51:36;32.87;;;17.40;;
2602;SDS011;1311;47.966;7.958;2024-01-11T08:54:04;28.00;;;16.50;;
2602;SDS011;1311;47.966;7.958;2024-01-11T08:56:34;32.40;;;16.70;;
2602;SDS011;1311;47.966;7.958;2024-01-11T08:59:01;36.30;;;16.67;;
2602;SDS011;1311;47.966;7.958;2024-01-11T09:01:29;35.73;;;18.37;;
2602;SDS011;1311;47.966;7.958;2024-01-11T09:03:57;32.30;;;17.23;;
2602;SDS011;1311;47.966;7.958;2024-01-11T09:06:24;34.47;;;18.57;;
2602;SDS011;1311;47.966;7.958;2024-01-11T09:08:51;33.70;;;17.97;;
2602;SDS011;1311;47.966;7.958;2024-01-11T09:11:17;34.23;;;18.07;;
2602;SDS011;1311;47.966;7.958;2024-01-11T09:13:44;29.50;;;16.57;;
2602;SDS011;1311;47.966;7.958;2024-01-11T09:16:13;35.47;;;18.77;;
2602;SDS011;1311;47.966;7.958;2024-01-11T09:18:43;31.87;;;17.30;;
2602;SDS011;1311;47.966;7.958;2024-01-11T09:21:11;36.13;;;18.10;;
2602;SDS011;1311;47.966;7.958;2024-01-11T09:23:38;35.30;;;19.37;;
2602;SDS011;1311;47.966;7.958;2024-01-11T09:26:04;41.00;;;20.50;;
2602;SDS011;1311;47.966;7.958;2024-01-11T09:28:31;36.23;;;19.47;;
2602;SDS011;1311;47.966;7.958;2024-01-11T09:30:58;33.73;;;17.23;;
2602;SDS011;1311;47.966;7.958;2024-01-11T09:33:26;35.87;;;19.07;;
2602;SDS011;1311;47.966;7.958;2024-01-11T09:35:57;35.10;;;18.40;;
2602;SDS011;1311;47.966;7.958;2024-01-11T09:38:24;34.83;;;19.20;;
2602;SDS011;1311;47.966;7.958;2024-01-11T09:40:53;36.83;;;18.37;;
2602;SDS011;1311;47.966;7.958;2024-01-11T09:43:31;33.80;;;17.37;;
2602;SDS011;1311;47.966;7.958;2024-01-11T09:46:00;34.63;;;18.03;;
2602;SDS011;1311;47.966;7.958;2024-01-11T09:48:29;40.40;;;19.33;;
2602;SDS011;1311;47.966;7.958;2024-01-11T09:50:58;33.03;;;18.87;;
2602;SDS011;1311;47.966;7.958;2024-01-11T09:53:27;32.50;;;19.03;;
2602;SDS011;1311;47.966;7.958;2024-01-11T09:55:55;31.07;;;18.30;;
2602;SDS011;1311;47.966;7.958;2024-01-11T09:58:22;32.70;;;17.50;;
2602;SDS011;1311;47.966;7.958;2024-01-11T10:00:49;33.50;;;18.00;;
2602;SDS011;1311;47.966;7.958;2024-01-11T10:03:21;32.67;;;19.23;;
2602;SDS011;1311;47.966;7.958;2024-01-11T10:05:49;30.13;;;16.80;;
2602;SDS011;1311;47.966;7.958;2024-01-11T10:08:22;34.17;;;18.67;;
2602;SDS011;1311;47.966;7.958;2024-01-11T10:10:50;32.33;;;17.30;;
2602;SDS011;1311;47.966;7.958;2024-01-11T10:13:17;40.20;;;20.63;;
2602;SDS011;1311;47.966;7.958;2024-01-11T10:15:45;40.83;;;19.70;;
2602;SDS011;1311;47.966;7.958;2024-01-11T10:18:12;33.93;;;19.30;;
2602;SDS011;1311;47.966;7.958;2024-01-11T10:20:39;36.80;;;19.00;;
2602;SDS011;1311;47.966;7.958;2024-01-11T10:23:06;33.40;;;19.27;;
2602;SDS011;1311;47.966;7.958;2024-01-11T10:25:35;35.60;;;19.50;;
2602;SDS011;1311;47.966;7.958;2024-01-11T10:28:02;33.60;;;19.17;;
2602;SDS011;1311;47.966;7.958;2024-01-11T10:30:29;32.17;;;20.23;;
2602;SDS011;1311;47.966;7.958;2024-01-11T10:32:57;39.37;;;20.50;;
2602;SDS011;1311;47.966;7.958;2024-01-11T10:35:24;31.67;;;18.37;;
2602;SDS011;1311;47.966;7.958;2024-01-11T10:37:51;35.83;;;19.47;;
2602;SDS011;1311;47.966;7.958;2024-01-11T10:40:19;31.63;;;18.40;;
2602;SDS011;1311;47.966;7.958;2024-01-11T10:42:51;35.17;;;18.80;;
2602;SDS011;1311;47.966;7.958;2024-01-11T10:45:20;29.00;;;17.37;;
2602;SDS011;1311;47.966;7.958;2024-01-11T10:47:50;34.83;;;19.33;;
2602;SDS011;1311;47.966;7.958;2024-01-11T10:50:18;41.73;;;21.17;;
2602;SDS011;1311;47.966;7.958;2024-01-11T10:52:48;38.23;;;20.20;;
2602;SDS011;1311;47.966;7.958;2024-01-11T10:55:23;33.60;;;19.57;;
2602;SDS011;1311;47.966;7.958;2024-01-11T10:57:53;32.67;;;19.03;;
2602;SDS011;1311;47.966;7.958;2024-01-11T11:00:20;37.07;;;19.60;;
2602;SDS011;1311;47.966;7.958;2024-01-11T11:02:48;38.60;;;20.93;;
2602;SDS011;1311;47.966;7.958;2024-01-11T11:05:17;40.57;;;19.67;;
2602;SDS011;1311;47.966;7.958;2024-01-11T11:07:46;37.93;;;20.60;;
2602;SDS011;1311;47.966;7.958;2024-01-11T11:10:15;38.27;;;20.73;;
2602;SDS011;1311;47.966;7.958;2024-01-11T11:12:43;45.80;;;21.63;;
2602;SDS011;1311;47.966;7.958;2024-01-11T11:15:13;38.20;;;19.63;;
2602;SDS011;1311;47.966;7.958;2024-01-11T11:17:41;40.37;;;21.40;;
2602;SDS011;1311;47.966;7.958;2024-01-11T11:20:10;39.63;;;20.70;;
2602;SDS011;1311;47.966;7.958;2024-01-11T11:22:39;37.00;;;19.67;;
2602;SDS011;1311;47.966;7.958;2024-01-11T11:25:08;34.10;;;19.47;;
2602;SDS011;1311;47.966;7.958;2024-01-11T11:27:35;38.77;;;20.30;;
2602;SDS011;1311;47.966;7.958;2024-01-11T11:30:02;32.47;;;18.97;;
2602;SDS011;1311;47.966;7.958;2024-01-11T11:32:38;37.97;;;20.77;;
2602;SDS011;1311;47.966;7.958;2024-01-11T11:35:09;38.53;;;21.40;;
2602;SDS011;1311;47.966;7.958;2024-01-11T11:37:36;38.53;;;21.60;;
2602;SDS011;1311;47.966;7.958;2024-01-11T11:40:04;35.87;;;20.13;;
2602;SDS011;1311;47.966;7.958;2024-01-11T11:42:33;34.77;;;20.17;;
2602;SDS011;1311;47.966;7.958;2024-01-11T11:45:01;36.93;;;19.80;;
2602;SDS011;1311;47.966;7.958;2024-01-11T11:47:33;33.03;;;20.57;;
2602;SDS011;1311;47.966;7.958;2024-01-11T11:50:06;43.60;;;21.87;;
2602;SDS011;1311;47.966;7.958;2024-01-11T11:52:35;36.47;;;20.57;;
2602;SDS011;1311;47.966;7.958;2024-01-11T11:55:03;34.33;;;21.17;;
2602;SDS011;1311;47.966;7.958;2024-01-11T11:57:31;37.50;;;20.90;;
2602;SDS011;1311;47.966;7.958;2024-01-11T11:59:59;31.73;;;18.50;;
2602;SDS011;1311;47.966;7.958;2024-01-11T12:02:30;42.57;;;22.30;;
2602;SDS011;1311;47.966;7.958;2024-01-11T12:04:57;47.43;;;22.30;;
2602;SDS011;1311;47.966;7.958;2024-01-11T12:07:25;44.37;;;22.03;;
2602;SDS011;1311;47.966;7.958;2024-01-11T12:09:53;40.67;;;22.43;;
2602;SDS011;1311;47.966;7.958;2024-01-11T12:12:20;40.00;;;22.17;;
2602;SDS011;1311;47.966;7.958;2024-01-11T12:14:47;34.83;;;20.27;;
2602;SDS011;1311;47.966;7.958;2024-01-11T12:17:14;42.17;;;22.00;;
2602;SDS011;1311;47.966;7.958;2024-01-11T12:19:41;41.90;;;21.30;;
2602;SDS011;1311;47.966;7.958;2024-01-11T12:22:07;40.73;;;22.50;;
2602;SDS011;1311;47.966;7.958;2024-01-11T12:24:36;36.47;;;21.37;;
2602;SDS011;1311;47.966;7.958;2024-01-11T12:27:03;43.30;;;22.67;;
2602;SDS011;1311;47.966;7.958;2024-01-11T12:29:31;41.83;;;22.27;;
2602;SDS011;1311;47.966;7.958;2024-01-11T12:31:58;33.30;;;20.30;;
2602;SDS011;1311;47.966;7.958;2024-01-11T12:34:25;37.70;;;22.87;;
2602;SDS011;1311;47.966;7.958;2024-01-11T12:36:53;34.20;;;21.67;;
2602;SDS011;1311;47.966;7.958;2024-01-11T12:39:20;36.67;;;23.03;;
2602;SDS011;1311;47.966;7.958;2024-01-11T12:41:50;43.83;;;23.60;;
2602;SDS011;1311;47.966;7.958;2024-01-11T12:44:18;41.00;;;22.77;;
2602;SDS011;1311;47.966;7.958;2024-01-11T12:46:47;39.87;;;21.73;;
2602;SDS011;1311;47.966;7.958;2024-01-11T12:49:14;38.53;;;19.87;;
2602;SDS011;1311;47.966;7.958;2024-01-11T12:51:42;31.50;;;19.57;;
2602;SDS011;1311;47.966;7.958;2024-01-11T12:54:10;35.10;;;20.90;;
2602;SDS011;1311;47.966;7.958;2024-01-11T12:56:40;33.10;;;19.77;;
2602;SDS011;1311;47.966;7.958;2024-01-11T12:59:09;39.43;;;20.43;;
2602;SDS011;1311;47.966;7.958;2024-01-11T13:01:37;36.73;;;20.63;;
2602;SDS011;1311;47.966;7.958;2024-01-11T13:04:05;34.97;;;20.97;;
2602;SDS011;1311;47.966;7.958;2024-01-11T13:06:34;39.13;;;21.20;;
2602;SDS011;1311;47.966;7.958;2024-01-11T13:09:01;41.20;;;21.13;;
2602;SDS011;1311;47.966;7.958;2024-01-11T13:11:29;36.23;;;20.33;;
2602;SDS011;1311;47.966;7.958;2024-01-11T13:13:56;33.40;;;21.00;;
2602;SDS011;1311;47.966;7.958;2024-01-11T13:16:27;37.90;;;21.50;;
2602;SDS011;1311;47.966;7.958;2024-01-11T13:18:55;38.10;;;21.50;;
2602;SDS011;1311;47.966;7.958;2024-01-11T13:21:21;35.10;;;20.20;;
2602;SDS011;1311;47.966;7.958;2024-01-11T13:23:48;37.43;;;21.80;;
2602;SDS011;1311;47.966;7.958;2024-01-11T13:26:15;38.30;;;22.67;;
2602;SDS011;1311;47.966;7.958;2024-01-11T13:28:42;38.30;;;22.17;;
2602;SDS011;1311;47.966;7.958;2024-01-11T13:31:10;33.90;;;20.40;;
2602;SDS011;1311;47.966;7.958;2024-01-11T13:33:38;34.37;;;21.17;;
2602;SDS011;1311;47.966;7.958;2024-01-11T13:36:06;38.97;;;21.70;;
2602;SDS011;1311;47.966;7.958;2024-01-11T13:38:33;37.93;;;20.60;;
2602;SDS011;1311;47.966;7.958;2024-01-11T13:41:01;35.80;;;19.67;;
2602;SDS011;1311;47.966;7.958;2024-01-11T13:43:27;35.50;;;22.00;;
2602;SDS011;1311;47.966;7.958;2024-01-11T13:45:54;37.63;;;22.00;;
2602;SDS011;1311;47.966;7.958;2024-01-11T13:48:21;39.10;;;22.00;;
2602;SDS011;1311;47.966;7.958;2024-01-11T13:50:49;39.83;;;22.33;;
2602;SDS011;1311;47.966;7.958;2024-01-11T13:53:16;40.00;;;22.43;;
2602;SDS011;1311;47.966;7.958;2024-01-11T13:55:43;32.27;;;21.47;;
2602;SDS011;1311;47.966;7.958;2024-01-11T13:58:10;40.73;;;23.70;;
2602;SDS011;1311;47.966;7.958;2024-01-11T14:00:37;40.27;;;22.20;;
2602;SDS011;1311;47.966;7.958;2024-01-11T14:03:05;37.20;;;21.13;;
2602;SDS011;1311;47.966;7.958;2024-01-11T14:05:32;39.07;;;23.10;;
2602;SDS011;1311;47.966;7.958;2024-01-11T14:08:01;37.73;;;21.30;;
2602;SDS011;1311;47.966;7.958;2024-01-11T14:10:30;38.43;;;21.30;;
2602;SDS011;1311;47.966;7.958;2024-01-11T14:12:59;41.67;;;21.20;;
2602;SDS011;1311;47.966;7.958;2024-01-11T14:15:26;41.80;;;22.33;;
2602;SDS011;1311;47.966;7.958;2024-01-11T14:17:53;37.47;;;21.10;;
2602;SDS011;1311;47.966;7.958;2024-01-11T14:20:21;40.87;;;23.37;;
2602;SDS011;1311;47.966;7.958;2024-01-11T14:22:48;41.13;;;22.13;;
2602;SDS011;1311;47.966;7.958;2024-01-11T14:25:18;36.93;;;21.60;;
2602;SDS011;1311;47.966;7.958;2024-01-11T14:27:46;39.63;;;22.33;;
2602;SDS011;1311;47.966;7.958;2024-01-11T14:30:13;45.50;;;22.00;;
2602;SDS011;1311;47.966;7.958;2024-01-11T14:32:40;38.30;;;21.10;;
2602;SDS011;1311;47.966;7.958;2024-01-11T14:35:07;42.07;;;22.90;;
2602;SDS011;1311;47.966;7.958;2024-01-11T14:37:35;41.53;;;21.80;;
2602;SDS011;1311;47.966;7.958;2024-01-11T14:40:03;43.97;;;23.57;;
2602;SDS011;1311;47.966;7.958;2024-01-11T14:42:32;35.13;;;21.00;;
2602;SDS011;1311;47.966;7.958;2024-01-11T14:44:59;50.60;;;24.80;;
2602;SDS011;1311;47.966;7.958;2024-01-11T14:47:26;43.23;;;23.83;;
2602;SDS011;1311;47.966;7.958;2024-01-11T14:49:53;36.37;;;22.30;;